Time;durP1;ratioP1;P1;durP2;ratioP2;P2;SDS_P1;SDS_P2;PMS_P1;PMS_P2;Temp;Humidity;BMP_temperature;BMP_pressure;BME280_temperature;BME280_humidity;BME280_pressure;Samples;Min_cycle;Max_cycle;Signal;HPM_P1;HPM_P2
2023/06/07 00:01:25;;;;;;;14.73;13.30;;;20.00;99.90;;;;;;4955572;28;20644;-59
2023/06/07 00:03:51;;;;;;;13.87;12.67;;;20.00;99.90;;;;;;4953423;29;20188;-58
2023/06/07 00:06:19;;;;;;;13.10;12.00;;;20.00;99.90;;;;;;4955359;29;20185;-58
2023/06/07 00:08:45;;;;;;;13.87;12.63;;;20.00;99.90;;;;;;4954518;28;20172;-58
2023/06/07 00:11:10;;;;;;;12.80;11.60;;;20.00;99.90;;;;;;4955268;28;20512;-59
2023/06/07 00:13:38;;;;;;;12.80;11.77;;;20.00;99.90;;;;;;4952464;28;20559;-59
2023/06/07 00:16:04;;;;;;;13.50;11.67;;;20.00;99.90;;;;;;4955129;29;20277;-58
2023/06/07 00:18:30;;;;;;;12.93;11.80;;;20.10;99.90;;;;;;4955222;29;20412;-59
2023/06/07 00:20:57;;;;;;;13.43;12.10;;;20.10;99.90;;;;;;4953231;29;20476;-59
2023/06/07 00:23:28;;;;;;;12.63;11.43;;;20.20;99.90;;;;;;4955092;28;20271;-59
2023/06/07 00:25:54;;;;;;;12.30;10.90;;;20.20;99.90;;;;;;4954283;28;21024;-58
2023/06/07 00:28:20;;;;;;;12.30;11.17;;;20.20;99.90;;;;;;4954862;28;20413;-59
2023/06/07 00:30:45;;;;;;;11.90;10.80;;;20.20;99.90;;;;;;4954242;29;20420;-58
2023/06/07 00:33:11;;;;;;;12.80;11.70;;;20.20;99.90;;;;;;4954864;28;20208;-59
2023/06/07 00:35:37;;;;;;;13.20;12.00;;;20.20;99.90;;;;;;4954373;28;20184;-59
2023/06/07 00:38:04;;;;;;;12.83;11.83;;;20.30;99.90;;;;;;4955185;28;20173;-59
2023/06/07 00:40:30;;;;;;;12.77;11.67;;;20.20;99.90;;;;;;4954585;28;20188;-59
2023/06/07 00:42:56;;;;;;;12.47;11.20;;;20.30;99.90;;;;;;4952385;28;20456;-59
2023/06/07 00:45:22;;;;;;;13.23;12.03;;;20.30;99.90;;;;;;4954654;29;20193;-59
2023/06/07 00:47:47;;;;;;;12.40;11.37;;;20.30;99.90;;;;;;4953896;29;20645;-59
2023/06/07 00:50:15;;;;;;;13.57;12.37;;;20.30;99.90;;;;;;4954533;28;20192;-58
2023/06/07 00:52:41;;;;;;;13.03;11.67;;;20.30;99.90;;;;;;4953517;28;20740;-58
2023/06/07 00:55:08;;;;;;;12.87;11.60;;;20.30;99.90;;;;;;4954636;28;20463;-59
2023/06/07 00:57:35;;;;;;;12.60;11.30;;;20.30;99.90;;;;;;4954844;29;20460;-59
2023/06/07 01:00:02;;;;;;;12.27;11.27;;;20.30;99.90;;;;;;4954083;28;20885;-59
2023/06/07 01:02:29;;;;;;;12.43;11.30;;;20.30;99.90;;;;;;4954300;28;20471;-59
2023/06/07 01:04:57;;;;;;;12.67;11.33;;;20.40;99.90;;;;;;4953703;28;20673;-59
2023/06/07 01:07:24;;;;;;;12.37;11.27;;;20.30;99.90;;;;;;4954184;29;20436;-58
2023/06/07 01:09:51;;;;;;;13.53;11.43;;;20.30;99.90;;;;;;4952617;28;20927;-59
2023/06/07 01:12:19;;;;;;;15.33;12.40;;;20.30;99.90;;;;;;4952966;28;20522;-59
2023/06/07 01:14:47;;;;;;;13.00;11.70;;;20.40;99.90;;;;;;4950427;28;20454;-59
2023/06/07 01:17:14;;;;;;;13.40;11.67;;;20.40;99.90;;;;;;4952958;29;20855;-59
2023/06/07 01:19:42;;;;;;;12.03;10.83;;;20.40;99.90;;;;;;4952999;29;20491;-58
2023/06/07 01:22:10;;;;;;;11.87;10.87;;;20.40;99.90;;;;;;4954607;28;20413;-59
2023/06/07 01:24:39;;;;;;;12.67;11.47;;;20.30;99.90;;;;;;4954326;28;20413;-58
2023/06/07 01:27:07;;;;;;;11.83;10.93;;;20.30;99.90;;;;;;4954741;28;20405;-58
2023/06/07 01:29:33;;;;;;;11.13;9.97;;;20.30;99.90;;;;;;4953884;28;20897;-59
2023/06/07 01:32:02;;;;;;;12.73;10.70;;;20.30;99.90;;;;;;4954126;28;20800;-59
2023/06/07 01:34:28;;;;;;;10.80;9.70;;;20.30;99.90;;;;;;4954498;29;20495;-58
2023/06/07 01:36:55;;;;;;;12.40;11.37;;;20.30;99.90;;;;;;4953565;29;20919;-58
2023/06/07 01:39:23;;;;;;;12.20;11.10;;;20.30;99.90;;;;;;4954440;29;20420;-59
2023/06/07 01:41:50;;;;;;;12.53;10.10;;;20.30;99.90;;;;;;4952791;29;20428;-58
2023/06/07 01:44:16;;;;;;;11.60;9.70;;;20.30;99.90;;;;;;4952337;29;20476;-59
2023/06/07 01:46:42;;;;;;;11.30;10.30;;;20.30;99.90;;;;;;4953817;29;20768;-59
2023/06/07 01:49:08;;;;;;;10.50;9.70;;;20.30;99.90;;;;;;4954338;29;20459;-58
2023/06/07 01:51:35;;;;;;;13.27;10.97;;;20.30;99.90;;;;;;4953410;29;20452;-59
2023/06/07 01:54:01;;;;;;;11.23;10.20;;;20.20;99.90;;;;;;4953158;28;20181;-59
2023/06/07 01:56:46;;;;;;;11.50;10.50;;;20.20;99.90;;;;;;4953230;28;20427;-58
2023/06/07 01:59:40;;;;;;;9.87;9.07;;;20.20;99.90;;;;;;4954276;28;20416;-58
2023/06/07 02:02:15;;;;;;;11.13;9.97;;;20.20;99.90;;;;;;4957301;29;20420;-59
2023/06/07 02:04:45;;;;;;;10.23;9.23;;;20.20;99.90;;;;;;4956588;28;20432;-58
2023/06/07 02:07:22;;;;;;;11.07;9.80;;;20.10;99.90;;;;;;4957660;29;20405;-58
2023/06/07 02:09:48;;;;;;;11.17;10.23;;;20.20;99.90;;;;;;4956997;28;20461;-58
2023/06/07 02:12:15;;;;;;;12.10;10.50;;;20.20;99.90;;;;;;4957020;29;20519;-58
2023/06/07 02:14:42;;;;;;;11.07;10.17;;;20.20;99.90;;;;;;4957642;28;20434;-59
2023/06/07 02:17:08;;;;;;;11.07;10.03;;;20.20;99.90;;;;;;4957574;28;20408;-59
2023/06/07 02:19:35;;;;;;;10.77;9.73;;;20.10;99.90;;;;;;4957416;28;20503;-58
2023/06/07 02:22:01;;;;;;;11.10;10.07;;;20.10;99.90;;;;;;4957224;29;20405;-59
2023/06/07 02:24:27;;;;;;;10.20;9.20;;;20.10;99.90;;;;;;4958127;29;20412;-59
2023/06/07 02:26:53;;;;;;;10.07;9.27;;;20.10;99.90;;;;;;4957003;29;20411;-59
2023/06/07 02:29:23;;;;;;;10.63;9.73;;;20.10;99.90;;;;;;4957751;29;20176;-59
2023/06/07 02:31:49;;;;;;;10.53;9.70;;;20.10;99.90;;;;;;4956890;29;20547;-58
2023/06/07 02:34:16;;;;;;;10.23;9.20;;;20.10;99.90;;;;;;4957271;29;20421;-58
2023/06/07 02:36:42;;;;;;;10.50;8.60;;;20.00;99.90;;;;;;4956948;29;20415;-58
2023/06/07 02:39:08;;;;;;;12.00;8.93;;;20.10;99.90;;;;;;4956806;29;20412;-58
2023/06/07 02:41:34;;;;;;;10.10;9.10;;;20.10;99.90;;;;;;4957353;29;20412;-59
2023/06/07 02:44:00;;;;;;;10.00;8.97;;;20.10;99.90;;;;;;4955221;29;20728;-58
2023/06/07 02:46:26;;;;;;;10.90;9.17;;;20.10;99.90;;;;;;4956121;29;20413;-58
2023/06/07 02:48:52;;;;;;;10.07;9.07;;;20.00;99.90;;;;;;4956738;28;20248;-59
2023/06/07 02:51:18;;;;;;;10.77;9.77;;;20.00;99.90;;;;;;4957225;28;20503;-59
2023/06/07 02:53:45;;;;;;;12.20;11.00;;;20.00;99.90;;;;;;4956029;28;20669;-59
2023/06/07 02:56:12;;;;;;;10.90;10.00;;;20.10;99.90;;;;;;4956840;28;20627;-59
2023/06/07 02:58:38;;;;;;;11.03;10.10;;;20.10;99.90;;;;;;4957082;28;20755;-59
2023/06/07 03:01:07;;;;;;;10.87;9.77;;;20.00;99.90;;;;;;4956431;28;20416;-59
2023/06/07 03:03:36;;;;;;;8.90;8.10;;;20.00;99.90;;;;;;4957042;28;20404;-59
2023/06/07 03:06:07;;;;;;;10.00;9.03;;;20.00;99.90;;;;;;4956453;29;20783;-58
2023/06/07 03:08:33;;;;;;;10.50;9.60;;;20.00;99.90;;;;;;4956073;28;20912;-59
2023/06/07 03:10:59;;;;;;;11.60;10.50;;;20.10;99.90;;;;;;4956000;29;20901;-58
2023/06/07 03:13:25;;;;;;;11.33;10.43;;;20.10;99.90;;;;;;4955721;28;20500;-58
2023/06/07 03:15:51;;;;;;;10.77;9.70;;;20.10;99.90;;;;;;4956357;28;20755;-59
2023/06/07 03:18:17;;;;;;;11.93;10.73;;;20.10;99.90;;;;;;4956692;29;20185;-59
2023/06/07 03:20:43;;;;;;;11.23;9.47;;;20.10;99.90;;;;;;4956741;28;20173;-59
2023/06/07 03:23:09;;;;;;;9.80;8.90;;;20.10;99.90;;;;;;4956901;28;20203;-58
2023/06/07 03:25:35;;;;;;;11.07;9.70;;;20.10;99.90;;;;;;4955950;28;20468;-58
2023/06/07 03:28:02;;;;;;;8.73;8.10;;;20.00;99.90;;;;;;4956039;28;20412;-59
2023/06/07 03:30:28;;;;;;;10.00;9.20;;;20.00;99.90;;;;;;4955953;28;20421;-58
2023/06/07 03:32:55;;;;;;;11.30;10.10;;;20.00;99.90;;;;;;4955285;29;20472;-59
2023/06/07 03:35:20;;;;;;;10.97;9.80;;;20.00;99.90;;;;;;4956490;28;20439;-59
2023/06/07 03:37:46;;;;;;;9.43;8.63;;;19.90;99.90;;;;;;4955897;29;20436;-58
2023/06/07 03:40:13;;;;;;;8.80;8.00;;;19.90;99.90;;;;;;4956389;28;20161;-59
2023/06/07 03:42:39;;;;;;;9.80;8.93;;;19.90;99.90;;;;;;4955215;29;20519;-58
2023/06/07 03:45:05;;;;;;;11.70;8.50;;;19.80;99.90;;;;;;4955074;28;20837;-58
2023/06/07 03:47:32;;;;;;;10.77;9.17;;;19.80;99.90;;;;;;4955757;29;20425;-59
2023/06/07 03:49:58;;;;;;;11.50;10.40;;;19.70;99.90;;;;;;4955568;29;20408;-59
2023/06/07 03:52:23;;;;;;;10.13;9.13;;;19.70;99.90;;;;;;4956104;28;20487;-59
2023/06/07 03:54:50;;;;;;;10.60;9.47;;;19.70;99.90;;;;;;4955198;29;20908;-58
2023/06/07 03:57:16;;;;;;;10.03;9.13;;;19.50;99.90;;;;;;4955409;28;20521;-59
2023/06/07 03:59:41;;;;;;;12.00;10.70;;;19.50;99.90;;;;;;4955998;29;20405;-58
2023/06/07 04:02:07;;;;;;;13.40;12.00;;;19.40;99.90;;;;;;4955404;28;20173;-59
2023/06/07 04:04:33;;;;;;;11.87;10.77;;;19.40;99.90;;;;;;4956266;28;20269;-58
2023/06/07 04:07:01;;;;;;;11.10;10.10;;;19.40;99.90;;;;;;4955263;29;20189;-59
2023/06/07 04:09:26;;;;;;;11.27;10.20;;;19.50;99.90;;;;;;4955795;28;20409;-58
2023/06/07 04:11:52;;;;;;;11.73;10.60;;;19.50;99.90;;;;;;4953395;28;20479;-59
2023/06/07 04:14:18;;;;;;;10.43;9.47;;;19.40;99.90;;;;;;4955235;29;20417;-58
2023/06/07 04:16:44;;;;;;;11.73;9.23;;;19.50;99.90;;;;;;4955602;29;20684;-58
2023/06/07 04:19:10;;;;;;;9.77;8.77;;;19.50;99.90;;;;;;4954136;29;20173;-59
2023/06/07 04:21:39;;;;;;;11.93;10.13;;;19.60;99.90;;;;;;4955073;28;20181;-58
2023/06/07 04:24:05;;;;;;;10.90;9.87;;;19.60;99.90;;;;;;4954547;28;20176;-58
2023/06/07 04:26:31;;;;;;;10.70;9.67;;;19.60;99.90;;;;;;4954413;29;20815;-58
2023/06/07 04:28:59;;;;;;;11.40;10.40;;;19.70;99.90;;;;;;4954563;29;20428;-58
2023/06/07 04:31:34;;;;;;;11.13;10.20;;;19.70;99.90;;;;;;4955489;29;20212;-59
2023/06/07 04:34:01;;;;;;;14.53;9.90;;;19.70;99.90;;;;;;4954959;28;20407;-58
2023/06/07 04:36:30;;;;;;;11.70;10.50;;;19.70;99.90;;;;;;4955387;29;20496;-59
2023/06/07 04:38:56;;;;;;;11.77;10.60;;;19.70;99.90;;;;;;4953487;29;20764;-59
2023/06/07 04:41:25;;;;;;;12.73;11.30;;;19.70;99.90;;;;;;4953796;28;20401;-58
2023/06/07 04:43:53;;;;;;;12.60;11.27;;;19.70;99.90;;;;;;4954342;29;20311;-59
2023/06/07 04:46:18;;;;;;;13.13;10.40;;;19.70;99.90;;;;;;4955177;28;20515;-59
2023/06/07 04:48:44;;;;;;;13.80;11.07;;;19.70;99.90;;;;;;4953118;29;20208;-58
2023/06/07 04:51:13;;;;;;;11.10;10.00;;;19.70;99.90;;;;;;4954546;28;20180;-59
2023/06/07 04:53:41;;;;;;;12.00;10.90;;;19.70;99.90;;;;;;4955038;28;20448;-58
2023/06/07 04:56:07;;;;;;;12.53;11.30;;;19.60;99.90;;;;;;4954475;28;20845;-58
2023/06/07 04:58:33;;;;;;;13.43;12.23;;;19.60;99.90;;;;;;4954574;28;20409;-59
2023/06/07 05:00:59;;;;;;;13.63;12.20;;;19.60;99.90;;;;;;4952279;29;20904;-58
2023/06/07 05:03:25;;;;;;;12.60;11.47;;;19.60;99.90;;;;;;4952775;28;20663;-58
2023/06/07 05:05:51;;;;;;;11.83;10.83;;;19.60;99.90;;;;;;4952508;28;20239;-58
2023/06/07 05:08:18;;;;;;;12.70;11.60;;;19.50;99.90;;;;;;4954811;29;20511;-58
2023/06/07 05:10:45;;;;;;;13.87;12.53;;;19.50;99.90;;;;;;4952653;29;20537;-58
2023/06/07 05:13:11;;;;;;;11.93;10.83;;;19.50;99.90;;;;;;4951686;28;20535;-62
2023/06/07 05:15:37;;;;;;;11.83;10.73;;;19.50;99.90;;;;;;4954998;28;20408;-58
2023/06/07 05:18:03;;;;;;;12.90;11.83;;;19.50;99.90;;;;;;4953294;28;20641;-58
2023/06/07 05:20:29;;;;;;;13.13;12.00;;;19.50;99.90;;;;;;4954196;29;20435;-58
2023/06/07 05:22:56;;;;;;;11.83;10.63;;;19.50;99.90;;;;;;4953232;28;20421;-58
2023/06/07 05:25:22;;;;;;;10.77;9.73;;;19.50;99.90;;;;;;4954624;28;20180;-58
2023/06/07 05:27:49;;;;;;;11.27;10.23;;;19.50;99.90;;;;;;4954643;28;20405;-58
2023/06/07 05:30:16;;;;;;;13.33;10.90;;;19.50;99.90;;;;;;4954024;28;20436;-58
2023/06/07 05:32:42;;;;;;;12.07;10.97;;;19.40;99.90;;;;;;4954389;28;20448;-58
2023/06/07 05:35:08;;;;;;;11.93;10.73;;;19.40;99.90;;;;;;4952628;28;20547;-58
2023/06/07 05:37:34;;;;;;;12.40;11.30;;;19.40;99.90;;;;;;4958053;29;20901;-58
2023/06/07 05:40:00;;;;;;;13.27;11.97;;;19.40;99.90;;;;;;4957819;29;20411;-58
2023/06/07 05:42:26;;;;;;;12.43;11.40;;;19.40;99.90;;;;;;4957470;29;20195;-58
2023/06/07 05:44:55;;;;;;;12.77;11.47;;;19.50;99.90;;;;;;4957965;28;20460;-58
2023/06/07 05:47:20;;;;;;;12.37;11.17;;;19.50;99.90;;;;;;4958218;28;20248;-57
2023/06/07 05:49:47;;;;;;;12.20;11.10;;;19.50;99.90;;;;;;4958235;28;20417;-57
2023/06/07 05:52:13;;;;;;;12.70;11.53;;;19.60;99.90;;;;;;4957503;29;20205;-57
2023/06/07 05:54:47;;;;;;;12.10;11.00;;;19.60;99.90;;;;;;4958250;28;20564;-58
2023/06/07 05:57:13;;;;;;;13.20;11.87;;;19.60;99.90;;;;;;4956383;29;20778;-58
2023/06/07 05:59:38;;;;;;;12.00;10.80;;;19.60;99.90;;;;;;4958176;29;20409;-58
2023/06/07 06:02:04;;;;;;;12.00;10.70;;;19.60;99.90;;;;;;4957536;28;20177;-58
2023/06/07 06:04:30;;;;;;;12.03;10.93;;;19.60;99.90;;;;;;4958035;28;20200;-57
2023/06/07 06:06:56;;;;;;;12.30;11.20;;;19.60;99.90;;;;;;4953784;28;20511;-60
2023/06/07 06:09:22;;;;;;;14.97;13.50;;;19.50;99.90;;;;;;4955766;29;20185;-58
2023/06/07 06:11:49;;;;;;;12.33;11.13;;;19.50;99.90;;;;;;4955476;28;20374;-58
2023/06/07 06:14:15;;;;;;;12.97;11.70;;;19.40;99.90;;;;;;4955632;28;20425;-58
2023/06/07 06:16:41;;;;;;;13.50;12.20;;;19.40;99.90;;;;;;4957312;28;20416;-58
2023/06/07 06:19:07;;;;;;;14.13;12.20;;;19.30;99.90;;;;;;4956374;28;20428;-58
2023/06/07 06:21:33;;;;;;;12.00;10.80;;;19.30;99.90;;;;;;4957748;29;20187;-58
2023/06/07 06:23:58;;;;;;;13.47;11.13;;;19.10;99.90;;;;;;4956951;28;20897;-58
2023/06/07 06:26:27;;;;;;;12.13;10.90;;;19.10;99.90;;;;;;4940294;29;20172;-57
2023/06/07 06:28:53;;;;;;;14.60;12.27;;;19.10;99.90;;;;;;4957088;28;20177;-58
2023/06/07 06:31:19;;;;;;;14.37;11.67;;;19.00;99.90;;;;;;4957111;28;20429;-58
2023/06/07 06:33:45;;;;;;;13.63;12.33;;;19.00;99.90;;;;;;4957465;28;20448;-57
2023/06/07 06:36:11;;;;;;;15.10;12.10;;;18.90;99.90;;;;;;4957252;29;20425;-58
2023/06/07 06:38:37;;;;;;;11.77;10.77;;;18.80;99.90;;;;;;4955803;28;20187;-58
2023/06/07 06:41:02;;;;;;;14.97;13.47;;;18.60;99.90;;;;;;4956326;28;20435;-59
2023/06/07 06:43:28;;;;;;;12.10;10.90;;;18.50;99.90;;;;;;4957010;28;20952;-58
2023/06/07 06:45:54;;;;;;;12.33;11.03;;;18.70;99.90;;;;;;4957186;28;20632;-59
2023/06/07 06:48:20;;;;;;;14.17;12.83;;;18.80;99.90;;;;;;4956534;28;20260;-59
2023/06/07 06:50:47;;;;;;;13.27;12.07;;;18.90;99.90;;;;;;4957180;29;20500;-59
2023/06/07 06:53:13;;;;;;;13.53;11.00;;;19.10;99.90;;;;;;4956588;28;20205;-59
2023/06/07 06:55:39;;;;;;;13.17;11.77;;;19.20;99.90;;;;;;4957239;29;20876;-59
2023/06/07 06:58:05;;;;;;;12.10;11.00;;;19.30;99.90;;;;;;4956041;28;20185;-59
2023/06/07 07:00:35;;;;;;;13.57;11.80;;;19.40;99.90;;;;;;4956772;28;20475;-59
2023/06/07 07:03:01;;;;;;;13.70;12.47;;;19.60;99.90;;;;;;4956350;28;20413;-59
2023/06/07 07:05:27;;;;;;;15.93;11.97;;;19.70;99.90;;;;;;4956946;28;20409;-59
2023/06/07 07:07:53;;;;;;;14.50;12.80;;;19.80;99.90;;;;;;4953959;29;20417;-59
2023/06/07 07:10:19;;;;;;;13.70;12.30;;;19.90;99.90;;;;;;4954235;28;20766;-59
2023/06/07 07:12:45;;;;;;;15.83;11.97;;;19.90;99.90;;;;;;4956897;28;20200;-59
2023/06/07 07:15:11;;;;;;;13.13;11.80;;;20.00;99.90;;;;;;4956196;29;20421;-59
2023/06/07 07:17:47;;;;;;;13.03;11.73;;;20.10;99.90;;;;;;4956791;28;20173;-59
2023/06/07 07:20:14;;;;;;;12.63;11.53;;;20.20;99.90;;;;;;4956235;28;20340;-59
2023/06/07 07:22:40;;;;;;;15.93;14.10;;;20.20;99.90;;;;;;4956721;28;20401;-59
2023/06/07 07:25:07;;;;;;;13.63;12.37;;;20.20;99.90;;;;;;4955141;29;20456;-59
2023/06/07 07:27:33;;;;;;;13.90;12.27;;;20.20;99.90;;;;;;4956475;29;20412;-59
2023/06/07 07:30:00;;;;;;;14.10;12.80;;;20.30;99.90;;;;;;4956078;28;20409;-59
2023/06/07 07:32:26;;;;;;;14.40;13.10;;;20.30;99.90;;;;;;4956436;29;20461;-59
2023/06/07 07:34:52;;;;;;;17.77;14.80;;;20.30;99.90;;;;;;4956467;29;20884;-59
2023/06/07 07:37:19;;;;;;;46.23;37.80;;;20.30;99.90;;;;;;4954583;29;20421;-59
2023/06/07 07:39:45;;;;;;;16.73;15.17;;;20.40;99.90;;;;;;4956614;28;20183;-59
2023/06/07 07:42:12;;;;;;;16.53;15.03;;;20.40;99.90;;;;;;4955431;28;20412;-59
2023/06/07 07:44:38;;;;;;;14.93;13.57;;;20.50;99.90;;;;;;4956572;28;20460;-60
2023/06/07 07:47:07;;;;;;;19.87;17.87;;;20.50;99.90;;;;;;4955744;28;20431;-61
2023/06/07 07:49:32;;;;;;;15.93;14.33;;;20.50;99.90;;;;;;4956144;28;20177;-61
2023/06/07 07:51:58;;;;;;;16.13;14.47;;;20.50;99.90;;;;;;4955954;28;20460;-61
2023/06/07 07:54:25;;;;;;;16.83;14.37;;;20.50;99.90;;;;;;4956090;29;20169;-61
2023/06/07 07:56:51;;;;;;;16.63;15.03;;;20.60;99.90;;;;;;4956400;28;20177;-61
2023/06/07 07:59:17;;;;;;;13.80;12.43;;;20.60;99.90;;;;;;4954490;28;20416;-61
2023/06/07 08:01:42;;;;;;;14.00;12.70;;;20.60;99.90;;;;;;4956104;29;20625;-61
2023/06/07 08:04:08;;;;;;;14.67;13.27;;;20.70;99.90;;;;;;4954137;29;20420;-62
2023/06/07 08:06:35;;;;;;;16.00;14.50;;;20.70;99.90;;;;;;4953338;28;20204;-61
2023/06/07 08:09:02;;;;;;;16.77;15.17;;;20.70;99.90;;;;;;4949815;28;20556;-61
2023/06/07 08:11:28;;;;;;;14.50;13.10;;;20.60;99.90;;;;;;4954380;29;20412;-62
2023/06/07 08:13:55;;;;;;;15.27;13.87;;;20.40;99.90;;;;;;4955490;28;20471;-62
2023/06/07 08:16:21;;;;;;;14.90;13.60;;;20.30;99.90;;;;;;4955128;28;20487;-62
2023/06/07 08:18:54;;;;;;;15.47;13.97;;;20.20;99.90;;;;;;4955624;29;20184;-62
2023/06/07 08:21:20;;;;;;;16.10;14.40;;;20.00;99.90;;;;;;4953738;29;20173;-61
2023/06/07 08:23:46;;;;;;;15.83;14.43;;;19.80;99.90;;;;;;4955508;28;20968;-62
2023/06/07 08:26:11;;;;;;;17.10;15.50;;;19.70;99.90;;;;;;4954547;28;20188;-61
2023/06/07 08:28:37;;;;;;;15.77;14.13;;;19.40;99.90;;;;;;4955210;29;20507;-61
2023/06/07 08:31:03;;;;;;;16.83;15.30;;;19.30;99.90;;;;;;4954613;28;20244;-60
2023/06/07 08:33:30;;;;;;;15.77;14.20;;;19.20;99.90;;;;;;4954812;28;20300;-62
2023/06/07 08:35:55;;;;;;;17.60;15.97;;;19.20;99.90;;;;;;4955771;28;20417;-62
2023/06/07 08:38:21;;;;;;;16.50;15.10;;;19.10;99.90;;;;;;4953909;28;20793;-62
2023/06/07 08:40:47;;;;;;;16.03;14.63;;;19.00;99.90;;;;;;4955325;29;20177;-62
2023/06/07 08:43:12;;;;;;;16.17;14.77;;;19.00;99.90;;;;;;4954562;28;20220;-61
2023/06/07 08:45:38;;;;;;;16.27;14.67;;;18.90;99.90;;;;;;4955177;28;20200;-61
2023/06/07 08:48:12;;;;;;;16.50;15.10;;;18.90;99.90;;;;;;4954560;28;20184;-61
2023/06/07 08:50:38;;;;;;;17.73;16.00;;;18.80;99.90;;;;;;4955221;28;20404;-64
2023/06/07 08:53:12;;;;;;;17.93;16.03;;;18.80;99.90;;;;;;4954114;29;20992;-63
2023/06/07 08:55:38;;;;;;;16.83;15.10;;;18.90;99.90;;;;;;4954345;28;20405;-63
2023/06/07 08:58:07;;;;;;;16.20;14.50;;;19.20;99.90;;;;;;4954443;28;20769;-62
2023/06/07 09:00:33;;;;;;;19.13;13.93;;;19.50;99.90;;;;;;4946885;28;20427;-63
2023/06/07 09:02:59;;;;;;;15.20;13.60;;;19.70;99.90;;;;;;4946033;29;20409;-64
2023/06/07 09:05:24;;;;;;;15.83;13.83;;;19.90;99.90;;;;;;4944808;29;20177;-64
2023/06/07 09:07:51;;;;;;;15.00;13.50;;;20.10;99.90;;;;;;4946966;29;20417;-64
2023/06/07 09:10:20;;;;;;;15.83;13.77;;;20.20;99.90;;;;;;4943085;28;20549;-64
2023/06/07 09:12:46;;;;;;;15.17;13.77;;;20.40;99.90;;;;;;4943958;29;20491;-64
2023/06/07 09:15:19;;;;;;;15.27;13.77;;;20.40;99.90;;;;;;4945934;28;20422;-63
2023/06/07 09:17:54;;;;;;;15.63;14.00;;;20.50;99.90;;;;;;4945294;28;20467;-64
2023/06/07 09:20:24;;;;;;;15.10;13.73;;;20.60;99.90;;;;;;4944975;29;20423;-64
2023/06/07 09:23:09;;;;;;;15.40;13.90;;;20.70;99.90;;;;;;4945032;29;20409;-64
2023/06/07 09:25:37;;;;;;;14.97;13.20;;;20.70;99.90;;;;;;4941005;29;20778;-63
2023/06/07 09:28:04;;;;;;;18.13;13.47;;;20.70;99.90;;;;;;4945588;29;20428;-63
2023/06/07 09:30:30;;;;;;;13.87;12.77;;;20.70;99.90;;;;;;4940485;29;20417;-64
2023/06/07 09:32:57;;;;;;;16.70;13.60;;;20.80;99.90;;;;;;4945602;29;20818;-64
2023/06/07 09:35:23;;;;;;;16.47;14.70;;;20.80;99.90;;;;;;4942315;29;20425;-61
2023/06/07 09:37:54;;;;;;;26.20;21.63;;;20.80;99.90;;;;;;4946014;28;20977;-62
2023/06/07 09:40:22;;;;;;;31.03;23.00;;;20.80;99.90;;;;;;4942713;28;20761;-61
2023/06/07 09:42:57;;;;;;;21.80;19.43;;;20.80;99.90;;;;;;4947278;28;20756;-62
2023/06/07 09:45:24;;;;;;;18.03;16.13;;;20.90;99.90;;;;;;4945810;28;20459;-62
2023/06/07 09:48:01;;;;;;;18.93;17.03;;;20.90;99.90;;;;;;4954363;28;20428;-66
2023/06/07 09:50:28;;;;;;;18.33;16.50;;;20.90;99.90;;;;;;4953840;28;20455;-66
2023/06/07 09:52:58;;;;;;;19.67;17.13;;;20.90;99.90;;;;;;4954053;28;20456;-66
2023/06/07 09:55:28;;;;;;;19.47;17.37;;;20.70;99.90;;;;;;4954085;28;20537;-66
2023/06/07 09:57:55;;;;;;;23.07;18.40;;;20.60;99.90;;;;;;4954375;28;20413;-67
2023/06/07 10:00:21;;;;;;;20.50;18.30;;;20.50;99.90;;;;;;4953727;28;20466;-66
2023/06/07 10:02:49;;;;;;;20.87;18.80;;;20.30;99.90;;;;;;4954315;28;20421;-66
2023/06/07 10:05:17;;;;;;;21.03;19.03;;;20.20;99.90;;;;;;4967831;28;20519;-66
2023/06/07 10:07:48;;;;;;;20.33;18.20;;;20.10;99.90;;;;;;4954288;28;20413;-66
2023/06/07 10:10:17;;;;;;;21.40;19.40;;;20.20;99.90;;;;;;4953579;28;20919;-66
2023/06/07 10:12:45;;;;;;;20.40;18.30;;;20.10;99.90;;;;;;4953966;28;20542;-66
2023/06/07 10:15:18;;;;;;;21.70;19.33;;;20.10;99.90;;;;;;4953595;28;20417;-65
2023/06/07 10:18:10;;;;;;;22.13;19.43;;;20.20;99.90;;;;;;4954102;28;20772;-66
2023/06/07 10:20:57;;;;;;;21.00;19.00;;;20.20;99.90;;;;;;4954228;28;20401;-66
2023/06/07 10:23:47;;;;;;;21.10;19.10;;;20.30;99.90;;;;;;4956767;28;20413;-66
2023/06/07 10:26:21;;;;;;;19.87;17.97;;;20.40;99.90;;;;;;4956921;28;20948;-66
2023/06/07 10:28:52;;;;;;;20.10;18.13;;;20.40;99.90;;;;;;4957759;28;20404;-66
2023/06/07 10:31:20;;;;;;;21.10;19.10;;;20.30;99.90;;;;;;4957046;28;20404;-66
2023/06/07 10:33:50;;;;;;;20.00;18.20;;;20.30;99.90;;;;;;4956487;28;20584;-66
2023/06/07 10:36:19;;;;;;;21.73;19.53;;;20.20;99.90;;;;;;4956591;28;20405;-66
2023/06/07 10:38:45;;;;;;;23.60;21.30;;;20.20;99.90;;;;;;4957102;28;20409;-66
2023/06/07 10:41:12;;;;;;;22.07;19.97;;;20.30;99.90;;;;;;4956535;28;20413;-65
2023/06/07 10:43:38;;;;;;;21.77;19.67;;;20.30;99.90;;;;;;4957050;28;20788;-66
2023/06/07 10:46:23;;;;;;;22.20;19.90;;;20.30;99.90;;;;;;4957219;28;20432;-67
2023/06/07 10:48:50;;;;;;;20.60;18.60;;;20.30;99.90;;;;;;4957085;29;20503;-66
2023/06/07 10:51:16;;;;;;;20.10;18.20;;;20.30;99.90;;;;;;4956633;28;20416;-66
2023/06/07 10:54:11;;;;;;;20.30;18.30;;;20.40;99.90;;;;;;4956968;28;20940;-66
2023/06/07 10:56:38;;;;;;;22.13;19.97;;;20.40;99.90;;;;;;4948576;28;20429;-64
2023/06/07 10:59:15;;;;;;;21.63;19.40;;;20.40;99.90;;;;;;4957079;29;20831;-67
2023/06/07 11:01:53;;;;;;;21.77;19.77;;;20.30;99.90;;;;;;4956117;28;20931;-66
2023/06/07 11:04:33;;;;;;;23.20;20.90;;;20.30;99.90;;;;;;4956491;28;20400;-66
2023/06/07 11:07:23;;;;;;;23.87;21.67;;;20.30;99.90;;;;;;4956931;28;20424;-66
2023/06/07 11:10:09;;;;;;;23.47;21.33;;;20.30;99.90;;;;;;4956986;28;20739;-66
2023/06/07 11:12:35;;;;;;;25.80;23.33;;;20.20;99.90;;;;;;4956238;29;20607;-66
2023/06/07 11:15:25;;;;;;;25.20;22.80;;;20.10;99.90;;;;;;4956891;28;20500;-66
2023/06/07 11:17:58;;;;;;;25.60;23.30;;;20.10;99.90;;;;;;4956829;28;20172;-66
2023/06/07 11:20:40;;;;;;;26.00;23.30;;;20.00;99.90;;;;;;4956259;29;20399;-66
2023/06/07 11:23:28;;;;;;;26.63;23.93;;;20.00;99.90;;;;;;4956878;28;20425;-67
2023/06/07 11:25:56;;;;;;;26.37;23.57;;;20.00;99.90;;;;;;4956707;28;20405;-66
2023/06/07 11:28:23;;;;;;;25.43;23.03;;;20.10;99.90;;;;;;4955968;28;20420;-66
2023/06/07 11:30:51;;;;;;;23.83;21.53;;;20.10;99.90;;;;;;4955932;29;20437;-66
2023/06/07 11:33:18;;;;;;;25.90;22.70;;;20.20;99.90;;;;;;4955526;28;20461;-66
2023/06/07 11:35:44;;;;;;;26.90;24.10;;;20.20;99.90;;;;;;4956458;28;20448;-66
2023/06/07 11:38:10;;;;;;;26.37;23.87;;;20.10;99.90;;;;;;4956526;28;20894;-66
2023/06/07 11:40:36;;;;;;;28.00;25.10;;;20.00;99.90;;;;;;4955994;29;20538;-66
2023/06/07 11:43:02;;;;;;;29.70;26.07;;;20.00;99.90;;;;;;4955870;28;20949;-66
2023/06/07 11:45:31;;;;;;;27.33;24.60;;;19.90;99.90;;;;;;4955681;29;20412;-66
2023/06/07 11:48:00;;;;;;;25.63;23.03;;;19.90;99.90;;;;;;4956193;28;20408;-66
2023/06/07 11:50:26;;;;;;;27.30;24.47;;;19.90;99.90;;;;;;4955470;28;20417;-66
2023/06/07 11:52:53;;;;;;;25.93;23.17;;;19.90;99.90;;;;;;4956093;28;20819;-64
2023/06/07 11:55:19;;;;;;;26.20;23.60;;;19.90;99.90;;;;;;4955394;28;20178;-65
2023/06/07 11:57:47;;;;;;;20.13;18.23;;;20.00;99.90;;;;;;4956020;28;20420;-64
2023/06/07 12:00:15;;;;;;;19.10;17.27;;;20.00;99.90;;;;;;4955116;28;20428;-64
2023/06/07 12:02:42;;;;;;;19.63;17.73;;;20.20;99.90;;;;;;4956020;28;20460;-64
2023/06/07 12:05:11;;;;;;;19.17;17.43;;;20.40;99.90;;;;;;4954657;28;20416;-64
2023/06/07 12:07:42;;;;;;;20.07;18.27;;;20.70;99.90;;;;;;4955246;29;20500;-64
2023/06/07 12:10:08;;;;;;;21.90;19.80;;;20.90;99.90;;;;;;4955893;28;20416;-64
2023/06/07 12:12:35;;;;;;;27.67;24.63;;;20.90;99.90;;;;;;4954417;28;20802;-64
2023/06/07 12:15:05;;;;;;;23.20;21.10;;;21.10;99.90;;;;;;4953578;29;20432;-64
2023/06/07 12:17:35;;;;;;;22.60;20.20;;;21.20;99.90;;;;;;4942111;29;20421;-63
2023/06/07 12:20:09;;;;;;;23.17;20.77;;;21.30;99.90;;;;;;4944642;28;20908;-64
2023/06/07 12:22:34;;;;;;;22.80;20.53;;;21.50;99.90;;;;;;4941149;29;20815;-64
2023/06/07 12:25:18;;;;;;;23.30;21.07;;;21.50;99.90;;;;;;4946604;29;20513;-64
2023/06/07 12:27:47;;;;;;;25.10;22.80;;;21.50;99.90;;;;;;4944351;29;20233;-66
2023/06/07 12:30:13;;;;;;;25.00;22.67;;;21.40;99.90;;;;;;4943035;28;20421;-66
2023/06/07 12:32:39;;;;;;;24.30;21.80;;;21.40;99.90;;;;;;4950381;29;21009;-67